Time;durP1;ratioP1;P1;durP2;ratioP2;P2;SDS_P1;SDS_P2;PMS_P1;PMS_P2;Temp;Humidity;BMP_temperature;BMP_pressure;BME280_temperature;BME280_humidity;BME280_pressure;Samples;Min_cycle;Max_cycle;Signal;HPM_P1;HPM_P2
2022/10/06 00:00:46;;;;;;;;;;;15.50;99.90;;;;;;5038251;28;19917;-87
2022/10/06 00:03:12;;;;;;;;;;;15.50;99.90;;;;;;5039080;28;19898;-85
2022/10/06 00:05:38;;;;;;;;;;;15.50;99.90;;;;;;5038463;28;19908;-86
2022/10/06 00:08:04;;;;;;;;;;;15.50;99.90;;;;;;5037761;28;19914;-85
2022/10/06 00:10:29;;;;;;;;;;;15.50;99.90;;;;;;5039764;28;19901;-87
2022/10/06 00:12:55;;;;;;;;;;;15.50;99.90;;;;;;5039291;28;19913;-85
2022/10/06 00:15:22;;;;;;;;;;;15.50;99.90;;;;;;5039741;28;19944;-85
2022/10/06 00:17:47;;;;;;;;;;;15.60;99.90;;;;;;5039707;28;19910;-86
2022/10/06 00:20:13;;;;;;;;;;;15.70;99.90;;;;;;5040568;28;19902;-86
2022/10/06 00:22:40;;;;;;;;;;;15.80;99.90;;;;;;5040551;28;19901;-86
2022/10/06 00:25:06;;;;;;;;;;;15.80;99.90;;;;;;5040575;28;19901;-86
2022/10/06 00:27:35;;;;;;;;;;;15.90;99.90;;;;;;5039508;28;19932;-86
2022/10/06 00:30:01;;;;;;;;;;;16.00;99.90;;;;;;5039719;28;19898;-87
2022/10/06 00:32:27;;;;;;;;;;;16.00;99.90;;;;;;5040318;28;19921;-86
2022/10/06 00:34:52;;;;;;;;;;;16.10;99.90;;;;;;5040181;28;19906;-87
2022/10/06 00:37:18;;;;;;;;;;;16.10;99.90;;;;;;5039246;28;19904;-86
2022/10/06 00:39:43;;;;;;;;;;;16.20;99.90;;;;;;5039974;28;19906;-86
2022/10/06 00:42:26;;;;;;;;;;;16.20;99.90;;;;;;5034811;28;19972;-87
2022/10/06 00:44:51;;;;;;;;;;;16.30;99.90;;;;;;5036934;28;20279;-87
2022/10/06 00:47:18;;;;;;;;;;;16.30;99.90;;;;;;5055730;28;19925;-86
2022/10/06 00:49:44;;;;;;;;;;;16.30;99.90;;;;;;5059438;28;19901;-86
2022/10/06 00:52:12;;;;;;;;;;;16.30;99.90;;;;;;5058973;28;19909;-86
2022/10/06 00:54:37;;;;;;;;;;;16.20;99.90;;;;;;5059682;28;19917;-87
2022/10/06 00:57:03;;;;;;;;;;;16.20;99.90;;;;;;5058639;28;19919;-87
2022/10/06 00:59:29;;;;;;;;;;;16.10;99.90;;;;;;5051653;28;19964;-87
2022/10/06 01:01:58;;;;;;;;;;;16.10;99.90;;;;;;5039776;28;19898;-86
2022/10/06 01:04:24;;;;;;;;;;;16.00;99.90;;;;;;5038951;28;19992;-86
2022/10/06 01:06:51;;;;;;;;;;;15.90;99.90;;;;;;5038738;28;19905;-86
2022/10/06 01:09:17;;;;;;;;;;;15.90;99.90;;;;;;5038747;28;19909;-86
2022/10/06 01:11:43;;;;;;;;;;;15.90;99.90;;;;;;5037673;28;19912;-86
2022/10/06 01:14:09;;;;;;;;;;;15.80;99.90;;;;;;5039063;28;19916;-86
2022/10/06 01:16:36;;;;;;;;;;;15.70;99.90;;;;;;5023998;28;19917;-88
2022/10/06 01:19:03;;;;;;;;;;;15.80;99.90;;;;;;5014238;28;19993;-88
2022/10/06 01:21:41;;;;;;;;;;;15.80;99.90;;;;;;5013840;28;19910;-88
2022/10/06 01:24:06;;;;;;;;;;;15.70;99.90;;;;;;5013766;28;19956;-87
2022/10/06 01:26:33;;;;;;;;;;;15.70;99.90;;;;;;5013304;28;19949;-88
2022/10/06 01:28:59;;;;;;;;;;;15.70;99.90;;;;;;5013591;28;19909;-88
2022/10/06 01:31:25;;;;;;;;;;;15.70;99.90;;;;;;5014151;28;19956;-88
2022/10/06 01:33:51;;;;;;;;;;;15.70;99.90;;;;;;5013732;28;19917;-87
2022/10/06 01:36:17;;;;;;;;;;;15.70;99.90;;;;;;5013543;28;19913;-85
2022/10/06 01:38:42;;;;;;;;;;;15.50;99.90;;;;;;5014599;28;19915;-85
2022/10/06 01:41:08;;;;;;;;;;;15.50;99.90;;;;;;5013249;28;19917;-85
2022/10/06 01:43:33;;;;;;;;;;;15.50;99.90;;;;;;5013203;28;19913;-84
2022/10/06 01:45:59;;;;;;;;;;;15.50;99.90;;;;;;5013103;28;19913;-86
2022/10/06 01:48:24;;;;;;;;;;;15.40;99.90;;;;;;5013375;28;19948;-85
2022/10/06 01:50:50;;;;;;;;;;;15.40;99.90;;;;;;5013197;28;19983;-85
2022/10/06 01:53:16;;;;;;;;;;;15.40;99.90;;;;;;5013097;28;20000;-85
2022/10/06 01:55:41;;;;;;;;;;;15.40;99.90;;;;;;5012749;28;19975;-86
2022/10/06 01:58:08;;;;;;;;;;;15.40;99.90;;;;;;5013272;28;19917;-85
2022/10/06 02:00:33;;;;;;;;;;;15.40;99.90;;;;;;5012902;28;19909;-85
2022/10/06 02:02:59;;;;;;;;;;;15.30;99.90;;;;;;5033063;22;20059;-86
2022/10/06 02:05:24;;;;;;;;;;;15.30;99.90;;;;;;5032150;28;19910;-85
2022/10/06 02:07:50;;;;;;;;;;;15.20;99.90;;;;;;5032785;28;20398;-86
2022/10/06 02:10:15;;;;;;;;;;;15.20;99.90;;;;;;5032315;28;19920;-87
2022/10/06 02:12:41;;;;;;;;;;;15.30;99.90;;;;;;5032097;28;19920;-87
2022/10/06 02:15:09;;;;;;;;;;;15.30;99.90;;;;;;5032115;28;20302;-86
2022/10/06 02:17:36;;;;;;;;;;;15.30;99.90;;;;;;5032347;28;20092;-85
2022/10/06 02:20:02;;;;;;;;;;;15.20;99.90;;;;;;5033374;28;19910;-86
2022/10/06 02:22:27;;;;;;;;;;;15.20;99.90;;;;;;5032015;28;19909;-87
2022/10/06 02:24:53;;;;;;;;;;;15.20;99.90;;;;;;5032140;28;19925;-86
2022/10/06 02:27:19;;;;;;;;;;;15.20;99.90;;;;;;5032909;28;19917;-86
2022/10/06 02:29:44;;;;;;;;;;;15.10;99.90;;;;;;5033199;28;20265;-87
2022/10/06 02:32:10;;;;;;;;;;;15.00;99.90;;;;;;5031914;28;19963;-86
2022/10/06 02:34:35;;;;;;;;;;;15.00;99.90;;;;;;5031792;28;19966;-87
2022/10/06 02:37:01;;;;;;;;;;;15.00;99.90;;;;;;5031593;28;19909;-87
2022/10/06 02:39:27;;;;;;;;;;;14.90;99.90;;;;;;5031757;28;19909;-86
2022/10/06 02:41:52;;;;;;;;;;;14.90;99.90;;;;;;5031827;28;19909;-86
2022/10/06 02:44:18;;;;;;;;;;;15.00;99.90;;;;;;5032878;28;19916;-86
2022/10/06 02:46:43;;;;;;;;;;;15.00;99.90;;;;;;5031312;28;19913;-86
2022/10/06 02:49:08;;;;;;;;;;;14.90;99.90;;;;;;5032770;28;19913;-86
2022/10/06 02:51:34;;;;;;;;;;;14.80;99.90;;;;;;5031752;28;20578;-86
2022/10/06 02:53:59;;;;;;;;;;;14.80;99.90;;;;;;5031460;28;19909;-86
2022/10/06 02:56:25;;;;;;;;;;;14.70;99.90;;;;;;5031359;28;19928;-86
2022/10/06 02:58:51;;;;;;;;;;;14.70;99.90;;;;;;5032837;28;20467;-86
2022/10/06 03:01:18;;;;;;;;;;;14.80;99.90;;;;;;5032720;28;20364;-85
2022/10/06 03:03:45;;;;;;;;;;;14.80;99.90;;;;;;5031164;28;19940;-85
2022/10/06 03:06:20;;;;;;;;;;;14.80;99.90;;;;;;5030955;28;19920;-85
2022/10/06 03:08:52;;;;;;;;;;;14.70;99.90;;;;;;5031354;28;19917;-85
2022/10/06 03:11:20;;;;;;;;;;;14.70;99.90;;;;;;5031539;28;19909;-86
2022/10/06 03:13:46;;;;;;;;;;;14.50;99.90;;;;;;5031390;28;19914;-85
2022/10/06 03:16:16;;;;;;;;;;;14.60;99.90;;;;;;5032288;28;19909;-86
2022/10/06 03:18:45;;;;;;;;;;;14.50;99.90;;;;;;5032404;28;19910;-86
2022/10/06 03:21:14;;;;;;;;;;;14.50;99.90;;;;;;5036567;28;19967;-86
2022/10/06 03:23:41;;;;;;;;;;;14.50;99.90;;;;;;5035026;28;19951;-86
2022/10/06 03:26:07;;;;;;;;;;;14.50;99.90;;;;;;5036209;28;19913;-86
2022/10/06 03:28:33;;;;;;;;;;;14.40;99.90;;;;;;5035274;28;19967;-85
2022/10/06 03:30:59;;;;;;;;;;;14.40;99.90;;;;;;5035326;28;19909;-85
2022/10/06 03:33:25;;;;;;;;;;;14.40;99.90;;;;;;5036341;28;19916;-84
2022/10/06 03:35:57;;;;;;;;;;;14.40;99.90;;;;;;5034648;28;19909;-86
2022/10/06 03:38:22;;;;;;;;;;;14.40;99.90;;;;;;5035079;28;19909;-86
2022/10/06 03:40:48;;;;;;;;;;;14.40;99.90;;;;;;5035156;28;20415;-85
2022/10/06 03:43:13;;;;;;;;;;;14.40;99.90;;;;;;5034822;28;19932;-86
2022/10/06 03:45:39;;;;;;;;;;;14.40;99.90;;;;;;5034626;28;19909;-85
2022/10/06 03:48:04;;;;;;;;;;;14.50;99.90;;;;;;5034795;28;19909;-85
2022/10/06 03:50:30;;;;;;;;;;;14.40;99.90;;;;;;5035234;28;19921;-85
2022/10/06 03:52:55;;;;;;;;;;;14.40;99.90;;;;;;5036295;28;19913;-86
2022/10/06 03:55:20;;;;;;;;;;;14.30;99.90;;;;;;5034979;28;19933;-85
2022/10/06 03:57:46;;;;;;;;;;;14.20;99.90;;;;;;5034424;28;19920;-85
2022/10/06 04:00:12;;;;;;;;;;;14.20;99.90;;;;;;5034807;28;19909;-86
2022/10/06 04:02:37;;;;;;;;;;;14.10;99.90;;;;;;5034350;28;19982;-85
2022/10/06 04:05:03;;;;;;;;;;;14.10;99.90;;;;;;5034828;28;19916;-85
2022/10/06 04:07:28;;;;;;;;;;;14.10;99.90;;;;;;5034293;28;19913;-86
2022/10/06 04:09:54;;;;;;;;;;;14.10;99.90;;;;;;5034493;28;19910;-86
2022/10/06 04:12:19;;;;;;;;;;;14.10;99.90;;;;;;5034212;28;20368;-85
2022/10/06 04:14:45;;;;;;;;;;;14.10;99.90;;;;;;5034224;28;19920;-85
2022/10/06 04:17:11;;;;;;;;;;;14.10;99.90;;;;;;5034047;28;19916;-85
2022/10/06 04:19:36;;;;;;;;;;;14.10;99.90;;;;;;5034146;28;19948;-86
2022/10/06 04:22:02;;;;;;;;;;;14.10;99.90;;;;;;5034231;28;20257;-85
2022/10/06 04:24:27;;;;;;;;;;;14.00;99.90;;;;;;5034035;28;19932;-85
2022/10/06 04:27:26;;;;;;;;;;;14.10;99.90;;;;;;5033808;28;19936;-86
2022/10/06 04:29:38;;;;;;;;;;;14.00;99.90;;;;;;5035073;28;19909;-85
2022/10/06 04:32:03;;;;;;;;;;;14.00;99.90;;;;;;5034714;28;20357;-86
2022/10/06 04:34:29;;;;;;;;;;;14.00;99.90;;;;;;5033733;28;19983;-85
2022/10/06 04:36:55;;;;;;;;;;;13.90;99.90;;;;;;5033667;28;19915;-86
2022/10/06 04:39:20;;;;;;;;;;;13.90;99.90;;;;;;5033744;28;19952;-86
2022/10/06 04:41:46;;;;;;;;;;;13.90;99.90;;;;;;5033849;28;20276;-85
2022/10/06 04:44:11;;;;;;;;;;;13.80;99.90;;;;;;5035040;28;19992;-86
2022/10/06 04:46:37;;;;;;;;;;;13.80;99.90;;;;;;5034686;28;19913;-86
2022/10/06 04:49:02;;;;;;;;;;;13.80;99.90;;;;;;5033819;28;19909;-85
2022/10/06 04:51:28;;;;;;;;;;;13.70;99.90;;;;;;5033615;28;20000;-84
2022/10/06 04:53:54;;;;;;;;;;;13.70;99.90;;;;;;5033443;28;19910;-85
2022/10/06 04:56:23;;;;;;;;;;;13.70;99.90;;;;;;5034539;28;20357;-86
2022/10/06 04:58:49;;;;;;;;;;;13.50;99.90;;;;;;5033437;28;19909;-86
2022/10/06 05:01:23;;;;;;;;;;;13.50;99.90;;;;;;5033614;28;19909;-85
2022/10/06 05:03:52;;;;;;;;;;;13.60;99.90;;;;;;5033211;28;20324;-85
2022/10/06 05:06:19;;;;;;;;;;;13.60;99.90;;;;;;5033151;28;20020;-85
2022/10/06 05:08:48;;;;;;;;;;;13.60;99.90;;;;;;5033545;28;19964;-85
2022/10/06 05:11:14;;;;;;;;;;;13.50;99.90;;;;;;5033636;28;19916;-85
2022/10/06 05:13:40;;;;;;;;;;;13.50;99.90;;;;;;5033481;28;20257;-85
2022/10/06 05:16:06;;;;;;;;;;;13.50;99.90;;;;;;5034522;28;19919;-85
2022/10/06 05:18:33;;;;;;;;;;;13.40;99.90;;;;;;5034614;28;19910;-85
2022/10/06 05:20:59;;;;;;;;;;;13.40;99.90;;;;;;5034555;28;19910;-85
2022/10/06 05:23:26;;;;;;;;;;;13.40;99.90;;;;;;5033231;28;19916;-86
2022/10/06 05:25:52;;;;;;;;;;;13.40;99.90;;;;;;5033013;28;19913;-86
2022/10/06 05:28:18;;;;;;;;;;;13.30;99.90;;;;;;5033246;28;19909;-85
2022/10/06 05:30:53;;;;;;;;;;;13.30;99.90;;;;;;5033200;28;19924;-85
2022/10/06 05:33:18;;;;;;;;;;;13.30;99.90;;;;;;5033003;28;20016;-85
2022/10/06 05:35:54;;;;;;;;;;;13.40;99.90;;;;;;5032732;28;19956;-86
2022/10/06 05:38:19;;;;;;;;;;;13.30;99.90;;;;;;5034132;28;19920;-85
2022/10/06 05:40:45;;;;;;;;;;;13.30;99.90;;;;;;5034145;28;19913;-86
2022/10/06 05:43:10;;;;;;;;;;;13.30;99.90;;;;;;5033062;28;19916;-85
2022/10/06 05:45:36;;;;;;;;;;;13.30;99.90;;;;;;5032448;28;19915;-85
2022/10/06 05:48:01;;;;;;;;;;;13.40;99.90;;;;;;5032816;28;19988;-85
2022/10/06 05:50:27;;;;;;;;;;;13.30;99.90;;;;;;5032784;28;19917;-85
2022/10/06 05:52:55;;;;;;;;;;;13.30;99.90;;;;;;5032692;28;19913;-86
2022/10/06 05:55:21;;;;;;;;;;;13.30;99.90;;;;;;5032887;28;19910;-84
2022/10/06 05:57:46;;;;;;;;;;;13.30;99.90;;;;;;5032474;28;19931;-85
2022/10/06 06:00:12;;;;;;;;;;;13.30;99.90;;;;;;5032510;28;19960;-85
2022/10/06 06:02:37;;;;;;;;;;;13.30;99.90;;;;;;5032251;28;19992;-85
2022/10/06 06:05:03;;;;;;;;;;;13.20;99.90;;;;;;5032490;28;19909;-84
2022/10/06 06:07:29;;;;;;;;;;;13.20;99.90;;;;;;5032303;28;19913;-85
2022/10/06 06:09:54;;;;;;;;;;;13.20;99.90;;;;;;5032315;28;19910;-86
2022/10/06 06:12:20;;;;;;;;;;;13.20;99.90;;;;;;5032466;28;19921;-85
2022/10/06 06:17:30;;;;;;;;;;;13.30;99.90;;;;;;5033504;28;19959;-85
2022/10/06 06:19:55;;;;;;;;;;;13.30;99.90;;;;;;5032534;28;19917;-85
2022/10/06 06:22:21;;;;;;;;;;;13.20;99.90;;;;;;5032003;28;19963;-85
2022/10/06 06:24:47;;;;;;;;;;;13.20;99.90;;;;;;5033476;28;19917;-86
2022/10/06 06:27:12;;;;;;;;;;;13.20;99.90;;;;;;5032084;28;19913;-86
2022/10/06 06:29:38;;;;;;;;;;;13.20;99.90;;;;;;5032027;28;19909;-86
2022/10/06 06:32:04;;;;;;;;;;;13.20;99.90;;;;;;5032260;28;19915;-86
2022/10/06 06:34:30;;;;;;;;;;;13.20;99.90;;;;;;5032030;28;19995;-85
2022/10/06 06:36:57;;;;;;;;;;;13.30;99.90;;;;;;5031855;28;19995;-85
2022/10/06 06:39:23;;;;;;;;;;;13.30;99.90;;;;;;5033299;28;19910;-85
2022/10/06 06:41:49;;;;;;;;;;;13.30;99.90;;;;;;5032000;28;20351;-85
2022/10/06 06:44:15;;;;;;;;;;;13.40;99.90;;;;;;5032041;28;19909;-85
2022/10/06 06:46:42;;;;;;;;;;;13.30;99.90;;;;;;5031420;28;20388;-86
2022/10/06 06:49:08;;;;;;;;;;;13.40;99.90;;;;;;5032069;28;19913;-86
2022/10/06 06:51:35;;;;;;;;;;;13.50;99.90;;;;;;5033186;28;20320;-85
2022/10/06 06:54:04;;;;;;;;;;;13.40;99.90;;;;;;5031325;28;19949;-85
2022/10/06 06:56:33;;;;;;;;;;;13.50;99.90;;;;;;5031402;28;20027;-85
2022/10/06 06:58:59;;;;;;;;;;;13.50;99.90;;;;;;5031768;28;19916;-86
2022/10/06 07:01:25;;;;;;;;;;;13.60;99.90;;;;;;5031655;28;19909;-85
2022/10/06 07:03:52;;;;;;;;;;;13.60;99.90;;;;;;5032630;28;19923;-85
2022/10/06 07:06:17;;;;;;;;;;;13.70;99.90;;;;;;5031378;28;19925;-85
2022/10/06 07:08:44;;;;;;;;;;;13.80;99.90;;;;;;5031514;28;19917;-86
2022/10/06 07:11:10;;;;;;;;;;;13.80;99.90;;;;;;5032590;28;19909;-86
2022/10/06 07:13:35;;;;;;;;;;;13.80;99.90;;;;;;5031435;28;19919;-86
2022/10/06 07:26:57;;;;;;;;;;;14.00;99.90;;;;;;5032499;28;19982;-86
2022/10/06 07:29:23;;;;;;;;;;;14.00;99.90;;;;;;5031124;28;19909;-85
2022/10/06 07:31:48;;;;;;;;;;;14.20;99.90;;;;;;5031168;28;19909;-85
2022/10/06 07:34:14;;;;;;;;;;;14.10;99.90;;;;;;5032107;28;19909;-86
2022/10/06 07:36:39;;;;;;;;;;;14.20;99.90;;;;;;5034387;28;19909;-84
2022/10/06 07:39:05;;;;;;;;;;;14.40;99.90;;;;;;5033222;28;19913;-85
2022/10/06 07:41:30;;;;;;;;;;;14.40;99.90;;;;;;5031671;28;19948;-86
2022/10/06 07:43:56;;;;;;;;;;;14.50;99.90;;;;;;5031107;28;20314;-87
2022/10/06 07:46:21;;;;;;;;;;;14.60;99.90;;;;;;5030702;28;19913;-86
2022/10/06 07:48:47;;;;;;;;;;;14.70;99.90;;;;;;5030892;28;19939;-87
2022/10/06 07:51:14;;;;;;;;;;;14.70;99.90;;;;;;5032103;28;20376;-88
2022/10/06 07:53:40;;;;;;;;;;;14.70;99.90;;;;;;5030856;28;19995;-87
2022/10/06 07:56:06;;;;;;;;;;;14.70;99.90;;;;;;5032005;28;19917;-87
2022/10/06 07:58:32;;;;;;;;;;;14.90;99.90;;;;;;5032139;28;19909;-86
2022/10/06 08:01:05;;;;;;;;;;;15.00;99.90;;;;;;5030716;28;20338;-87
2022/10/06 08:03:30;;;;;;;;;;;15.00;99.90;;;;;;5063219;22;19940;-81
2022/10/06 08:05:57;;;;;;;;;;;15.10;99.90;;;;;;5052957;28;19916;-81
2022/10/06 08:08:22;;;;;;;;;;;15.10;99.90;;;;;;5037894;28;19908;-82
2022/10/06 08:10:51;;;;;;;;;;;15.30;99.90;;;;;;5038158;28;19909;-82
2022/10/06 08:13:17;;;;;;;;;;;15.40;99.90;;;;;;5055953;28;20283;-82
2022/10/06 08:15:42;;;;;;;;;;;15.40;99.90;;;;;;5045981;28;19909;-81
2022/10/06 08:18:08;;;;;;;;;;;15.60;99.90;;;;;;5027325;28;20365;-79
2022/10/06 08:20:33;;;;;;;;;;;15.60;99.90;;;;;;5048355;28;19970;-79
2022/10/06 08:22:58;;;;;;;;;;;15.70;99.90;;;;;;5056158;28;19908;-78
2022/10/06 08:25:24;;;;;;;;;;;15.80;99.90;;;;;;5038482;28;19909;-78
2022/10/06 08:27:49;;;;;;;;;;;15.90;99.90;;;;;;5053757;28;19912;-79
2022/10/06 08:30:15;;;;;;;;;;;15.90;99.90;;;;;;5043735;28;20494;-78
2022/10/06 08:32:42;;;;;;;;;;;15.90;99.90;;;;;;5060519;28;19909;-79
2022/10/06 08:35:08;;;;;;;;;;;16.00;99.90;;;;;;5070978;28;19908;-79
2022/10/06 08:37:33;;;;;;;;;;;15.90;99.90;;;;;;5075177;28;20038;-79
2022/10/06 08:39:58;;;;;;;;;;;16.00;99.90;;;;;;5075056;28;19944;-79
2022/10/06 08:42:30;;;;;;;;;;;16.10;99.90;;;;;;5075648;28;19908;-79
2022/10/06 08:45:02;;;;;;;;;;;16.20;99.90;;;;;;5057059;28;19916;-78
2022/10/06 08:47:32;;;;;;;;;;;16.20;99.90;;;;;;5074597;28;20345;-78
2022/10/06 08:49:58;;;;;;;;;;;16.40;99.90;;;;;;5075682;28;20379;-79
2022/10/06 08:52:32;;;;;;;;;;;16.40;99.90;;;;;;5082016;28;19954;-79
2022/10/06 08:55:13;;;;;;;;;;;16.50;99.90;;;;;;5076078;28;19915;-78
2022/10/06 08:57:38;;;;;;;;;;;16.60;99.90;;;;;;5074673;28;19916;-80
2022/10/06 09:00:09;;;;;;;;;;;16.60;99.90;;;;;;5057924;28;19970;-79
2022/10/06 09:02:40;;;;;;;;;;;16.60;99.90;;;;;;5074853;28;19909;-79
2022/10/06 09:05:07;;;;;;;;;;;16.60;99.90;;;;;;5075059;28;19920;-78
2022/10/06 09:07:51;;;;;;;;;;;16.70;99.90;;;;;;5074173;28;20264;-79
2022/10/06 09:10:27;;;;;;;;;;;16.70;99.90;;;;;;5075244;28;19912;-78
2022/10/06 09:12:54;;;;;;;;;;;16.80;99.90;;;;;;5075341;28;19930;-78
2022/10/06 09:15:39;;;;;;;;;;;16.90;99.90;;;;;;5074915;28;19951;-79
2022/10/06 09:18:09;;;;;;;;;;;16.80;99.90;;;;;;5046830;28;19924;-82
2022/10/06 09:20:38;;;;;;;;;;;16.80;99.90;;;;;;5036084;28;19909;-80
2022/10/06 09:23:05;;;;;;;;;;;16.90;99.90;;;;;;5035568;28;19909;-81
2022/10/06 09:25:31;;;;;;;;;;;16.90;99.90;;;;;;5035235;28;19909;-80
2022/10/06 09:27:58;;;;;;;;;;;16.90;99.90;;;;;;5034657;28;19910;-80
2022/10/06 09:30:24;;;;;;;;;;;16.90;99.90;;;;;;5034464;28;20362;-80
2022/10/06 09:32:59;;;;;;;;;;;17.00;99.90;;;;;;5016814;28;19941;-82
2022/10/06 09:35:26;;;;;;;;;;;17.00;99.90;;;;;;5036202;28;19909;-81
2022/10/06 09:37:53;;;;;;;;;;;17.10;99.90;;;;;;5034179;28;19913;-81
2022/10/06 09:40:45;;;;;;;;;;;17.10;99.90;;;;;;5034815;28;19919;-80
2022/10/06 09:43:17;;;;;;;;;;;17.20;99.90;;;;;;5030346;28;19913;-81
2022/10/06 09:45:42;;;;;;;;;;;17.30;99.90;;;;;;5034490;28;19999;-80
2022/10/06 09:48:12;;;;;;;;;;;17.30;99.90;;;;;;5035375;28;19936;-81
2022/10/06 09:50:37;;;;;;;;;;;17.20;99.90;;;;;;5035231;28;20335;-80
2022/10/06 09:53:04;;;;;;;;;;;17.30;99.90;;;;;;5036457;28;19913;-81
2022/10/06 09:55:50;;;;;;;;;;;17.40;99.90;;;;;;5036309;28;19971;-81
2022/10/06 09:58:33;;;;;;;;;;;17.50;99.90;;;;;;5035643;28;20402;-81
2022/10/06 10:01:04;;;;;;;;;;;18.10;99.90;;;;;;5035422;28;19909;-81
2022/10/06 10:03:41;;;;;;;;;;;20.20;99.90;;;;;;5036019;28;19917;-81
2022/10/06 10:06:07;;;;;;;;;;;22.50;99.90;;;;;;5035124;28;20344;-82
2022/10/06 10:08:33;;;;;;;;;;;24.10;96.20;;;;;;5035507;28;19936;-81
2022/10/06 10:14:15;;;;;;;;;;;26.80;80.60;;;;;;5014368;28;19939;-81
2022/10/06 10:16:41;;;;;;;;;;;27.00;67.20;;;;;;5032514;28;19914;-81
2022/10/06 10:19:20;;;;;;;;;;;26.60;67.50;;;;;;5034952;28;19920;-81
2022/10/06 10:21:46;;;;;;;;;;;26.20;66.80;;;;;;5034902;28;19913;-81
2022/10/06 10:24:18;;;;;;;;;;;24.70;64.40;;;;;;5035253;28;19909;-82
2022/10/06 10:26:48;;;;;;;;;;;23.30;67.10;;;;;;5034908;28;19924;-82
2022/10/06 10:29:32;;;;;;;;;;;22.30;70.30;;;;;;5032607;28;20365;-82
2022/10/06 10:32:11;;;;;;;;;;;21.70;73.80;;;;;;5034647;28;19909;-80
2022/10/06 10:34:45;;;;;;;;;;;21.40;75.70;;;;;;5035056;28;20287;-82
2022/10/06 10:37:14;;;;;;;;;;;20.90;80.00;;;;;;5036957;28;20423;-80
2022/10/06 10:40:00;;;;;;;;;;;20.40;85.60;;;;;;5035961;28;19909;-81
2022/10/06 10:42:38;;;;;;;;;;;20.00;86.10;;;;;;5033000;28;19914;-81
2022/10/06 10:45:06;;;;;;;;;;;19.70;90.10;;;;;;5034010;28;19909;-81
2022/10/06 10:47:35;;;;;;;;;;;19.60;92.60;;;;;;5033660;28;20295;-81
2022/10/06 10:50:06;;;;;;;;;;;19.50;93.70;;;;;;5033309;28;19909;-81
2022/10/06 10:52:34;;;;;;;;;;;19.50;93.70;;;;;;5015340;28;19956;-81
2022/10/06 10:55:17;;;;;;;;;;;19.40;95.40;;;;;;5033998;28;19909;-81
2022/10/06 10:57:43;;;;;;;;;;;19.30;93.20;;;;;;5035067;28;19981;-81
2022/10/06 11:00:24;;;;;;;;;;;19.20;95.00;;;;;;5034272;28;19909;-81
2022/10/06 11:02:53;;;;;;;;;;;19.50;94.60;;;;;;5033379;28;20335;-82
2022/10/06 11:05:38;;;;;;;;;;;19.90;96.10;;;;;;5033573;28;20406;-80
2022/10/06 11:08:03;;;;;;;;;;;20.70;94.40;;;;;;5034225;28;20000;-81
2022/10/06 11:10:32;;;;;;;;;;;21.40;91.40;;;;;;5033850;28;19983;-82
2022/10/06 11:13:03;;;;;;;;;;;21.40;90.10;;;;;;5034837;28;19909;-82
2022/10/06 11:15:30;;;;;;;;;;;21.40;91.20;;;;;;5036385;28;19962;-81
2022/10/06 11:18:01;;;;;;;;;;;21.40;90.10;;;;;;5033305;28;19924;-81
2022/10/06 11:20:42;;;;;;;;;;;21.50;89.30;;;;;;5033020;28;19909;-80
2022/10/06 11:23:27;;;;;;;;;;;21.40;86.90;;;;;;5032911;28;19909;-80
2022/10/06 11:25:56;;;;;;;;;;;21.70;87.50;;;;;;5033308;28;19909;-80
2022/10/06 11:28:38;;;;;;;;;;;22.40;83.00;;;;;;5032268;28;19913;-81
2022/10/06 11:31:15;;;;;;;;;;;22.40;82.00;;;;;;5031867;28;19916;-81
2022/10/06 11:33:44;;;;;;;;;;;22.10;80.90;;;;;;5031753;28;19909;-81
2022/10/06 11:36:14;;;;;;;;;;;21.50;80.20;;;;;;5033039;28;19917;-81
2022/10/06 11:38:46;;;;;;;;;;;21.20;83.60;;;;;;5033284;28;19957;-81
2022/10/06 11:41:30;;;;;;;;;;;20.80;85.60;;;;;;5034309;28;19913;-81
2022/10/06 11:44:02;;;;;;;;;;;20.70;86.90;;;;;;5036507;28;20333;-82
2022/10/06 11:46:31;;;;;;;;;;;20.40;86.70;;;;;;5036137;28;19913;-83
2022/10/06 11:49:15;;;;;;;;;;;20.20;88.90;;;;;;5036880;28;19960;-80
2022/10/06 11:51:40;;;;;;;;;;;20.30;92.90;;;;;;5037354;28;20288;-81
2022/10/06 11:54:26;;;;;;;;;;;20.30;90.40;;;;;;5037007;28;19916;-81
2022/10/06 11:56:51;;;;;;;;;;;20.20;85.70;;;;;;5034897;28;19913;-80
2022/10/06 11:59:24;;;;;;;;;;;20.20;84.90;;;;;;5036277;28;20004;-81
2022/10/06 12:01:51;;;;;;;;;;;20.20;89.20;;;;;;5036721;28;19949;-80
2022/10/06 12:04:16;;;;;;;;;;;20.10;86.80;;;;;;5037064;28;19917;-82
2022/10/06 12:06:45;;;;;;;;;;;20.10;87.10;;;;;;5034724;28;19909;-82
2022/10/06 12:09:22;;;;;;;;;;;20.20;91.90;;;;;;5035930;28;19932;-82
2022/10/06 12:11:49;;;;;;;;;;;20.20;90.20;;;;;;5036030;28;19922;-82
2022/10/06 12:14:23;;;;;;;;;;;20.20;91.80;;;;;;5035817;28;20032;-83
2022/10/06 12:16:53;;;;;;;;;;;20.30;91.50;;;;;;5035542;28;19928;-82
2022/10/06 12:19:18;;;;;;;;;;;20.20;90.60;;;;;;5036110;28;19917;-83
2022/10/06 12:21:56;;;;;;;;;;;20.20;87.40;;;;;;5035992;28;20434;-82
2022/10/06 12:24:37;;;;;;;;;;;20.20;85.40;;;;;;5037673;28;20375;-83
2022/10/06 12:27:15;;;;;;;;;;;20.30;85.30;;;;;;5035681;28;20276;-82
2022/10/06 12:29:45;;;;;;;;;;;20.60;88.30;;;;;;5036276;28;19909;-82
2022/10/06 12:32:14;;;;;;;;;;;21.00;85.40;;;;;;5035877;28;20391;-82
2022/10/06 12:34:49;;;;;;;;;;;21.10;86.50;;;;;;5035555;28;19909;-83
2022/10/06 12:37:20;;;;;;;;;;;21.20;81.00;;;;;;5017484;28;19913;-82
2022/10/06 12:39:46;;;;;;;;;;;21.00;82.50;;;;;;5035161;28;19911;-82
2022/10/06 12:42:23;;;;;;;;;;;20.90;84.20;;;;;;5035902;28;19916;-82
2022/10/06 12:44:50;;;;;;;;;;;20.80;85.70;;;;;;5035645;28;19909;-82
2022/10/06 12:47:19;;;;;;;;;;;20.90;79.60;;;;;;5034879;28;20342;-82
2022/10/06 12:49:57;;;;;;;;;;;21.00;73.20;;;;;;5017946;28;19909;-83
2022/10/06 12:52:30;;;;;;;;;;;21.00;71.30;;;;;;5035123;28;20456;-82
2022/10/06 12:55:28;;;;;;;;;;;20.90;75.50;;;;;;5017834;28;19919;-82
2022/10/06 12:57:53;;;;;;;;;;;21.00;75.60;;;;;;4990973;28;20000;-83
2022/10/06 13:00:26;;;;;;;;;;;21.00;76.60;;;;;;5034938;28;20357;-82
2022/10/06 13:02:53;;;;;;;;;;;20.90;78.20;;;;;;5034736;28;19916;-82
2022/10/06 13:05:19;;;;;;;;;;;20.80;76.80;;;;;;5034647;28;20011;-83
2022/10/06 13:08:01;;;;;;;;;;;20.70;76.30;;;;;;5033598;28;19913;-82
2022/10/06 13:10:31;;;;;;;;;;;20.90;76.90;;;;;;5034065;28;19909;-82
2022/10/06 13:12:57;;;;;;;;;;;21.50;79.40;;;;;;5034892;28;19909;-82
2022/10/06 13:15:29;;;;;;;;;;;22.60;76.10;;;;;;5033380;28;19946;-83
2022/10/06 13:18:13;;;;;;;;;;;23.10;72.70;;;;;;5034684;28;19963;-82
2022/10/06 13:20:45;;;;;;;;;;;22.70;70.60;;;;;;5034512;28;20327;-82
2022/10/06 13:23:13;;;;;;;;;;;22.20;71.70;;;;;;5033035;28;20388;-83
2022/10/06 13:25:40;;;;;;;;;;;21.70;71.70;;;;;;5034069;28;19909;-83
2022/10/06 13:28:17;;;;;;;;;;;21.50;71.90;;;;;;5034200;28;19967;-83
2022/10/06 13:30:48;;;;;;;;;;;21.30;72.60;;;;;;5033187;28;19932;-82
2022/10/06 13:33:13;;;;;;;;;;;21.00;73.00;;;;;;5033451;28;19959;-82
2022/10/06 13:35:39;;;;;;;;;;;20.80;73.30;;;;;;5016110;28;19913;-83
2022/10/06 13:38:04;;;;;;;;;;;20.70;72.60;;;;;;5034207;28;20308;-83
2022/10/06 13:40:32;;;;;;;;;;;20.70;72.20;;;;;;5033794;28;20292;-83
2022/10/06 13:42:59;;;;;;;;;;;20.60;76.80;;;;;;5034170;28;20000;-83
2022/10/06 13:45:25;;;;;;;;;;;20.70;76.00;;;;;;5025821;28;20011;-82
2022/10/06 13:48:05;;;;;;;;;;;20.80;72.60;;;;;;5053036;28;20408;-83
2022/10/06 13:50:30;;;;;;;;;;;20.80;72.50;;;;;;5053164;28;19924;-83
2022/10/06 13:52:56;;;;;;;;;;;20.70;71.20;;;;;;5053237;28;20269;-83
2022/10/06 13:55:22;;;;;;;;;;;20.90;72.20;;;;;;5035188;28;20406;-84
2022/10/06 13:57:49;;;;;;;;;;;21.80;69.90;;;;;;5034922;28;19964;-83
2022/10/06 14:00:18;;;;;;;;;;;23.60;69.60;;;;;;5052427;28;20284;-84
2022/10/06 14:02:49;;;;;;;;;;;25.20;66.50;;;;;;5034381;28;19909;-84
2022/10/06 14:05:19;;;;;;;;;;;27.00;61.30;;;;;;5034804;28;19931;-84
2022/10/06 14:07:45;;;;;;;;;;;28.00;56.70;;;;;;5034551;28;19913;-84
2022/10/06 14:10:15;;;;;;;;;;;28.40;55.00;;;;;;5052770;28;19913;-85
2022/10/06 14:12:42;;;;;;;;;;;29.20;50.80;;;;;;5035008;28;19913;-84
2022/10/06 14:15:21;;;;;;;;;;;29.40;48.10;;;;;;5034654;28;19913;-84
2022/10/06 14:18:01;;;;;;;;;;;30.50;45.90;;;;;;5035073;28;19913;-85
2022/10/06 14:20:40;;;;;;;;;;;31.20;44.30;;;;;;5037249;28;19952;-85
2022/10/06 14:23:25;;;;;;;;;;;31.50;44.20;;;;;;5015285;28;19910;-81
2022/10/06 14:25:50;;;;;;;;;;;31.70;41.30;;;;;;5033633;28;19913;-82
2022/10/06 14:28:16;;;;;;;;;;;32.60;39.90;;;;;;5032850;28;19909;-82
2022/10/06 14:30:41;;;;;;;;;;;32.90;38.10;;;;;;5032824;28;19915;-82
2022/10/06 14:33:07;;;;;;;;;;;33.50;37.60;;;;;;5032816;28;19916;-84
2022/10/06 14:35:32;;;;;;;;;;;33.80;36.20;;;;;;5043164;28;20292;-82
2022/10/06 14:37:57;;;;;;;;;;;34.50;36.30;;;;;;5034825;28;19919;-83
2022/10/06 14:40:23;;;;;;;;;;;35.00;34.80;;;;;;5070246;28;20649;-82